Time;durP1;ratioP1;P1;durP2;ratioP2;P2;SDS_P1;SDS_P2;PMS_P1;PMS_P2;Temp;Humidity;BMP_temperature;BMP_pressure;BME280_temperature;BME280_humidity;BME280_pressure;Samples;Min_cycle;Max_cycle;Signal;HPM_P1;HPM_P2
2022/04/22 00:01:10;;;;;;;6.05;3.80;;;16.40;82.30;;;;;;5042825;28;20274;-38
2022/04/22 00:03:40;;;;;;;5.03;3.40;;;16.40;82.20;;;;;;5047088;28;20236;-38
2022/04/22 00:06:10;;;;;;;6.28;3.47;;;16.30;82.50;;;;;;5035114;28;20209;-38
2022/04/22 00:08:37;;;;;;;4.20;3.50;;;16.30;81.90;;;;;;5031256;28;20211;-38
2022/04/22 00:13:55;;;;;;;8.20;3.78;;;16.20;81.60;;;;;;5037910;28;20308;-38
2022/04/22 00:16:23;;;;;;;5.22;3.53;;;16.20;81.80;;;;;;5034231;28;20205;-38
2022/04/22 00:18:52;;;;;;;4.25;3.40;;;16.20;81.70;;;;;;5029950;28;20237;-38
2022/04/22 00:21:20;;;;;;;7.22;4.13;;;16.10;81.80;;;;;;5033072;28;20204;-38
2022/04/22 00:23:49;;;;;;;6.57;4.32;;;16.00;82.70;;;;;;5029224;28;20220;-38
2022/04/22 00:26:20;;;;;;;5.97;3.92;;;16.00;82.20;;;;;;5033389;28;20233;-38
2022/04/22 00:28:47;;;;;;;5.28;3.78;;;15.90;82.30;;;;;;5031532;28;20209;-38
2022/04/22 00:31:20;;;;;;;5.85;4.10;;;15.90;81.90;;;;;;5031320;28;20201;-38
2022/04/22 00:33:50;;;;;;;5.78;3.72;;;15.90;82.30;;;;;;5038660;28;20221;-38
2022/04/22 00:36:17;;;;;;;7.65;3.80;;;15.80;82.00;;;;;;5042621;28;20200;-38
2022/04/22 00:38:49;;;;;;;6.35;4.28;;;15.80;82.20;;;;;;5045686;28;20575;-38
2022/04/22 00:41:18;;;;;;;8.38;4.95;;;15.70;82.10;;;;;;5035098;28;20706;-38
2022/04/22 00:43:53;;;;;;;8.02;3.92;;;15.70;82.30;;;;;;5032776;28;20217;-38
2022/04/22 00:46:25;;;;;;;5.38;4.10;;;15.60;82.70;;;;;;5037508;28;20200;-38
2022/04/22 00:48:55;;;;;;;4.20;3.50;;;15.60;81.90;;;;;;5043500;28;20201;-38
2022/04/22 00:51:23;;;;;;;6.50;4.35;;;15.50;81.90;;;;;;5033467;28;20331;-39
2022/04/22 00:53:54;;;;;;;4.47;3.92;;;15.50;81.70;;;;;;5035112;28;20742;-38
2022/04/22 00:56:21;;;;;;;6.40;3.85;;;15.50;82.40;;;;;;5029626;28;20236;-39
2022/04/22 00:58:52;;;;;;;5.63;4.30;;;15.40;81.80;;;;;;5039047;28;20754;-38
2022/04/22 01:01:24;;;;;;;7.43;4.47;;;15.30;82.20;;;;;;5038864;28;20192;-38
2022/04/22 01:09:47;;;;;;;7.22;4.45;;;15.20;81.90;;;;;;5038710;28;20243;-38
2022/04/22 01:12:17;;;;;;;7.10;4.65;;;15.20;82.80;;;;;;5038729;28;20209;-39
2022/04/22 01:14:47;;;;;;;5.53;4.20;;;15.10;82.50;;;;;;5036410;28;20204;-38
2022/04/22 01:17:15;;;;;;;7.18;4.28;;;15.10;82.80;;;;;;5039866;28;20299;-38
2022/04/22 01:19:43;;;;;;;4.70;4.20;;;15.00;82.10;;;;;;5038179;28;20203;-38
2022/04/22 01:22:13;;;;;;;4.78;4.18;;;15.00;81.80;;;;;;5043398;28;20612;-38
2022/04/22 01:24:48;;;;;;;7.88;4.57;;;14.90;82.00;;;;;;5038790;28;20226;-38
2022/04/22 01:27:18;;;;;;;6.65;4.70;;;14.90;83.10;;;;;;5036582;28;20215;-38
2022/04/22 01:29:48;;;;;;;5.53;4.45;;;14.80;82.10;;;;;;5048044;28;20200;-38
2022/04/22 01:32:18;;;;;;;7.78;4.75;;;14.80;82.20;;;;;;5038550;28;20208;-38
2022/04/22 01:34:47;;;;;;;9.90;5.05;;;14.80;83.00;;;;;;5036687;28;20311;-38
2022/04/22 01:37:15;;;;;;;8.80;5.07;;;14.70;82.00;;;;;;5047362;28;20293;-37
2022/04/22 01:39:44;;;;;;;5.77;4.63;;;14.70;82.60;;;;;;5035688;28;20749;-38
2022/04/22 01:42:14;;;;;;;7.13;4.70;;;14.60;82.20;;;;;;5036954;28;20262;-38
2022/04/22 01:44:41;;;;;;;8.27;4.80;;;14.60;82.00;;;;;;5034059;28;20670;-38
2022/04/22 01:47:11;;;;;;;5.75;4.72;;;14.60;82.10;;;;;;5048501;28;20296;-38
2022/04/22 01:49:43;;;;;;;6.88;5.60;;;14.60;82.20;;;;;;5048979;28;20299;-38
2022/04/22 01:52:13;;;;;;;6.65;5.20;;;14.50;82.50;;;;;;5038278;28;20690;-38
2022/04/22 01:54:42;;;;;;;7.55;5.18;;;14.50;82.40;;;;;;5028531;28;20264;-38
2022/04/22 01:57:09;;;;;;;9.35;5.43;;;14.50;82.40;;;;;;5031300;28;20209;-38
2022/04/22 01:59:40;;;;;;;5.88;5.15;;;14.40;83.20;;;;;;5035561;28;20625;-38
2022/04/22 02:02:08;;;;;;;7.75;5.18;;;14.40;82.20;;;;;;5046908;28;20633;-38
2022/04/22 02:04:37;;;;;;;6.90;5.47;;;14.40;82.10;;;;;;5035355;28;20213;-38
2022/04/22 02:07:07;;;;;;;8.13;5.70;;;14.40;82.30;;;;;;5040282;28;20262;-38
2022/04/22 02:09:35;;;;;;;10.13;6.65;;;14.30;82.60;;;;;;5036611;28;20304;-38
2022/04/22 02:12:04;;;;;;;8.10;6.40;;;14.30;82.40;;;;;;5041498;28;20219;-38
2022/04/22 02:14:34;;;;;;;10.27;6.43;;;14.30;82.50;;;;;;5043268;28;20574;-38
2022/04/22 02:17:06;;;;;;;8.68;6.88;;;14.30;82.30;;;;;;5031144;28;20203;-38
2022/04/22 02:19:40;;;;;;;8.77;6.85;;;14.20;82.50;;;;;;5041691;28;20220;-38
2022/04/22 02:22:10;;;;;;;10.93;8.13;;;14.20;82.60;;;;;;5036171;28;20231;-38
2022/04/22 02:24:39;;;;;;;10.82;7.22;;;14.10;83.00;;;;;;5028633;28;20325;-38
2022/04/22 02:29:53;;;;;;;10.88;8.43;;;14.10;83.70;;;;;;5041354;28;20204;-38
2022/04/22 02:32:24;;;;;;;9.18;7.70;;;14.00;82.60;;;;;;5028648;28;20708;-38
2022/04/22 02:34:52;;;;;;;11.27;8.85;;;14.00;82.50;;;;;;5025747;28;20232;-39
2022/04/22 02:37:22;;;;;;;9.50;7.90;;;14.00;82.60;;;;;;5039462;28;20208;-39
2022/04/22 02:39:54;;;;;;;12.77;8.50;;;14.00;82.60;;;;;;5027144;28;20213;-39
2022/04/22 02:45:27;;;;;;;10.77;8.88;;;13.90;82.60;;;;;;5031272;28;20200;-38
2022/04/22 02:48:02;;;;;;;11.57;9.07;;;13.90;83.10;;;;;;5031188;28;20259;-39
2022/04/22 02:50:32;;;;;;;10.15;8.20;;;13.80;82.60;;;;;;5034404;28;20296;-39
2022/04/22 02:52:59;;;;;;;11.88;9.63;;;13.80;82.80;;;;;;5027282;28;20218;-39
2022/04/22 02:55:26;;;;;;;11.93;8.33;;;13.80;82.80;;;;;;5039908;28;20228;-39
2022/04/22 02:57:54;;;;;;;14.40;9.18;;;13.70;82.70;;;;;;5044518;28;20204;-39
2022/04/22 03:00:25;;;;;;;11.60;8.88;;;13.70;83.10;;;;;;5034993;28;20224;-39
2022/04/22 03:02:54;;;;;;;11.10;8.60;;;13.70;82.80;;;;;;5045925;28;20304;-39
2022/04/22 03:05:27;;;;;;;10.50;8.38;;;13.70;83.30;;;;;;5025542;28;20193;-39
2022/04/22 03:07:56;;;;;;;13.60;8.48;;;13.70;83.00;;;;;;5027959;28;20208;-39
2022/04/22 03:10:26;;;;;;;11.07;7.72;;;13.60;83.00;;;;;;5045631;28;20219;-39
2022/04/22 03:12:58;;;;;;;10.43;7.95;;;13.60;83.00;;;;;;5046275;28;20204;-37
2022/04/22 03:15:25;;;;;;;9.90;8.23;;;13.60;83.20;;;;;;5042096;28;20737;-37
2022/04/22 03:17:55;;;;;;;10.73;7.68;;;13.60;83.30;;;;;;5032395;28;20240;-36
2022/04/22 03:20:25;;;;;;;9.73;7.85;;;13.50;83.60;;;;;;5040109;28;20243;-37
2022/04/22 03:22:52;;;;;;;9.40;8.40;;;13.50;83.70;;;;;;5027109;28;20683;-37
2022/04/22 03:25:21;;;;;;;10.93;7.85;;;13.50;83.70;;;;;;5034438;28;20212;-37
2022/04/22 03:27:51;;;;;;;14.37;9.17;;;13.50;83.30;;;;;;5032017;28;20299;-37
2022/04/22 03:30:26;;;;;;;10.45;8.23;;;13.40;84.20;;;;;;5039597;28;20723;-38
2022/04/22 03:32:54;;;;;;;12.80;8.77;;;13.40;83.80;;;;;;5044378;28;20204;-38
2022/04/22 03:35:26;;;;;;;8.67;7.77;;;13.30;84.00;;;;;;5030639;28;20208;-37
2022/04/22 03:37:56;;;;;;;12.00;9.63;;;13.30;83.60;;;;;;5043491;28;20220;-36
2022/04/22 03:40:24;;;;;;;9.80;8.60;;;13.30;83.30;;;;;;5029097;28;20193;-37
2022/04/22 03:42:52;;;;;;;10.85;8.30;;;13.20;83.70;;;;;;5009729;28;20232;-37
2022/04/22 03:45:25;;;;;;;11.73;9.43;;;13.20;83.90;;;;;;5035930;28;20220;-38
2022/04/22 03:47:56;;;;;;;10.90;8.95;;;13.20;84.00;;;;;;5041963;28;20222;-39
2022/04/22 03:50:24;;;;;;;10.10;9.00;;;13.10;83.80;;;;;;5028781;28;20236;-36
2022/04/22 03:52:54;;;;;;;11.60;9.15;;;13.10;83.90;;;;;;5027600;28;20240;-37
2022/04/22 03:55:24;;;;;;;11.20;8.97;;;13.10;83.90;;;;;;5035781;28;20240;-35
2022/04/22 03:58:12;;;;;;;10.53;9.33;;;13.10;83.90;;;;;;5043090;28;20247;-37
2022/04/22 04:00:49;;;;;;;11.65;8.82;;;13.00;85.30;;;;;;5043065;28;20201;-38
2022/04/22 04:03:22;;;;;;;12.23;10.27;;;13.00;84.20;;;;;;5036597;28;20677;-36
2022/04/22 04:05:52;;;;;;;11.37;10.10;;;13.00;85.10;;;;;;5045057;28;20198;-37
2022/04/22 04:08:24;;;;;;;12.97;10.47;;;12.90;84.70;;;;;;5040732;28;20288;-37
2022/04/22 04:16:23;;;;;;;14.37;10.10;;;12.80;84.40;;;;;;5045701;28;20337;-35
2022/04/22 04:18:50;;;;;;;11.82;9.70;;;12.80;84.60;;;;;;5051874;28;20254;-36
2022/04/22 04:24:08;;;;;;;12.80;10.33;;;12.80;84.90;;;;;;5033287;28;20205;-35
2022/04/22 04:26:38;;;;;;;12.30;10.43;;;12.80;84.50;;;;;;5045041;28;20298;-38
2022/04/22 04:29:09;;;;;;;15.73;10.47;;;12.80;84.90;;;;;;5043861;28;20605;-36
2022/04/22 04:31:38;;;;;;;12.60;9.95;;;12.70;85.60;;;;;;5047589;28;20730;-36
2022/04/22 04:34:05;;;;;;;13.27;9.63;;;12.70;84.90;;;;;;5052534;28;20235;-36
2022/04/22 04:36:33;;;;;;;11.90;10.70;;;12.60;84.70;;;;;;5048191;28;20754;-37
2022/04/22 04:39:02;;;;;;;11.53;10.30;;;12.70;85.00;;;;;;5046187;28;20313;-36
2022/04/22 04:41:31;;;;;;;11.20;10.07;;;12.60;85.00;;;;;;5034846;28;20200;-36
2022/04/22 04:44:01;;;;;;;13.30;10.75;;;12.60;84.90;;;;;;5043416;28;20706;-37
2022/04/22 04:46:30;;;;;;;13.57;11.25;;;12.60;85.10;;;;;;5045394;28;20775;-36
2022/04/22 04:49:01;;;;;;;14.25;11.82;;;12.60;85.00;;;;;;5031971;28;20228;-36
2022/04/22 04:51:33;;;;;;;13.30;10.77;;;12.60;85.60;;;;;;5033319;28;20197;-36
2022/04/22 04:54:01;;;;;;;13.20;11.30;;;12.60;85.50;;;;;;5039709;28;20323;-37
2022/04/22 04:56:28;;;;;;;12.83;11.40;;;12.60;85.70;;;;;;5037041;28;20227;-36
2022/04/22 04:58:57;;;;;;;13.33;11.47;;;12.50;85.30;;;;;;5038555;28;20201;-37
2022/04/22 05:01:27;;;;;;;13.88;11.00;;;12.50;85.60;;;;;;5031098;28;20669;-35
2022/04/22 05:03:59;;;;;;;14.57;12.17;;;12.50;85.50;;;;;;5043828;28;20217;-36
2022/04/22 05:06:30;;;;;;;13.23;11.87;;;12.50;86.30;;;;;;5036562;28;20198;-36
2022/04/22 05:08:57;;;;;;;12.60;11.27;;;12.50;85.70;;;;;;5039145;28;20239;-36
2022/04/22 05:11:25;;;;;;;13.80;10.93;;;12.50;85.70;;;;;;5021146;28;20232;-37
2022/04/22 05:13:52;;;;;;;14.67;11.80;;;12.50;85.60;;;;;;5028247;28;20224;-37
2022/04/22 05:16:19;;;;;;;13.43;11.87;;;12.50;85.70;;;;;;5043983;28;20231;-36
2022/04/22 05:18:49;;;;;;;13.50;11.20;;;12.50;85.60;;;;;;5044047;28;20623;-37
2022/04/22 05:21:22;;;;;;;15.97;12.93;;;12.50;85.60;;;;;;5039854;28;20595;-37
2022/04/22 05:23:51;;;;;;;18.27;12.87;;;12.50;86.40;;;;;;5048869;28;20722;-37
2022/04/22 05:26:20;;;;;;;14.90;12.00;;;12.50;86.60;;;;;;5045385;28;20231;-37
2022/04/22 05:28:48;;;;;;;17.03;12.87;;;12.50;86.60;;;;;;5034936;28;20706;-37
2022/04/22 05:34:06;;;;;;;13.67;11.77;;;12.50;86.40;;;;;;5039344;28;20328;-36
2022/04/22 05:36:38;;;;;;;13.70;11.73;;;12.50;87.10;;;;;;5044696;28;20216;-37
2022/04/22 05:39:08;;;;;;;16.73;12.77;;;12.50;86.70;;;;;;5042720;28;20218;-37
2022/04/22 05:41:38;;;;;;;16.25;12.35;;;12.50;87.50;;;;;;5031356;28;20205;-38
2022/04/22 05:44:12;;;;;;;18.08;12.75;;;12.60;88.10;;;;;;5033967;28;20287;-37
2022/04/22 05:46:39;;;;;;;16.63;12.50;;;12.60;88.00;;;;;;5043025;28;20206;-37
2022/04/22 05:49:14;;;;;;;13.10;11.35;;;12.60;88.10;;;;;;5042310;28;20226;-36
2022/04/22 05:51:41;;;;;;;19.30;12.40;;;12.60;87.40;;;;;;5037093;28;20219;-37
2022/04/22 05:54:11;;;;;;;16.30;12.10;;;12.60;87.60;;;;;;5038001;28;20307;-37
2022/04/22 05:56:38;;;;;;;17.85;12.05;;;12.60;88.30;;;;;;5043481;28;20235;-38
2022/04/22 05:59:09;;;;;;;16.63;12.52;;;12.60;88.30;;;;;;5035940;28;20665;-37
2022/04/22 06:01:38;;;;;;;13.25;10.93;;;12.60;89.60;;;;;;5040669;28;20204;-38
2022/04/22 06:04:06;;;;;;;14.40;11.00;;;12.60;88.10;;;;;;5040360;28;20213;-38
2022/04/22 06:06:35;;;;;;;16.53;11.80;;;12.70;87.70;;;;;;5028808;28;20296;-38
2022/04/22 06:11:57;;;;;;;16.20;12.00;;;12.70;88.30;;;;;;5028656;28;20200;-38
2022/04/22 06:14:24;;;;;;;14.65;11.77;;;12.70;89.70;;;;;;5040551;28;20225;-38
2022/04/22 06:16:51;;;;;;;14.98;11.38;;;12.70;88.80;;;;;;5030466;28;20288;-38
2022/04/22 06:19:19;;;;;;;18.10;13.30;;;12.80;88.70;;;;;;5033145;28;20192;-38
2022/04/22 06:21:46;;;;;;;16.60;11.65;;;12.80;89.20;;;;;;5028252;28;20215;-38
2022/04/22 06:24:13;;;;;;;21.70;12.45;;;12.80;88.50;;;;;;5037117;28;20208;-38
2022/04/22 06:26:41;;;;;;;21.42;13.20;;;12.90;88.70;;;;;;5027170;28;20932;-38
2022/04/22 06:29:08;;;;;;;22.30;12.10;;;12.90;90.00;;;;;;5042330;28;20228;-38
2022/04/22 06:31:36;;;;;;;16.48;12.15;;;12.90;89.30;;;;;;5027845;28;20209;-38
2022/04/22 06:34:06;;;;;;;13.32;10.48;;;13.00;88.80;;;;;;5041155;28;20937;-38
2022/04/22 06:36:42;;;;;;;16.83;11.27;;;13.00;88.90;;;;;;5047424;28;20726;-38
2022/04/22 06:39:10;;;;;;;17.20;12.23;;;13.10;89.90;;;;;;5041003;28;20203;-38
2022/04/22 06:47:36;;;;;;;14.93;11.13;;;13.20;89.80;;;;;;5076277;28;20678;-39
2022/04/22 06:50:07;;;;;;;12.52;10.20;;;13.20;89.60;;;;;;5049688;28;20236;-38
2022/04/22 06:52:37;;;;;;;16.52;12.20;;;13.30;89.20;;;;;;5033625;28;20274;-38
2022/04/22 06:55:05;;;;;;;15.52;11.85;;;13.30;90.00;;;;;;5028623;28;20275;-38
2022/04/22 06:57:36;;;;;;;17.48;11.93;;;13.40;90.00;;;;;;5030787;28;20200;-38
2022/04/22 07:00:03;;;;;;;14.55;10.93;;;13.30;90.40;;;;;;5028422;28;20209;-38
2022/04/22 07:02:31;;;;;;;13.85;11.02;;;13.40;90.10;;;;;;5026955;28;20928;-38
2022/04/22 07:05:04;;;;;;;15.13;10.48;;;13.50;90.30;;;;;;5028109;28;20672;-39
2022/04/22 07:07:31;;;;;;;14.20;10.40;;;13.60;90.00;;;;;;5035050;28;20197;-38
2022/04/22 07:10:04;;;;;;;15.98;11.80;;;13.60;90.10;;;;;;5026610;28;20267;-38
2022/04/22 07:12:32;;;;;;;14.15;11.98;;;13.60;90.40;;;;;;5040674;28;20204;-39
2022/04/22 07:15:06;;;;;;;17.02;11.93;;;13.60;90.90;;;;;;5038217;28;20233;-38
2022/04/22 07:17:35;;;;;;;14.52;11.55;;;13.70;91.00;;;;;;5040994;28;20228;-38
2022/04/22 07:20:06;;;;;;;16.75;12.25;;;13.70;90.50;;;;;;5030067;28;20221;-38
2022/04/22 07:22:36;;;;;;;14.65;11.45;;;13.70;91.10;;;;;;5027038;28;20197;-38
2022/04/22 07:25:11;;;;;;;13.63;11.07;;;13.80;90.70;;;;;;5028443;28;20243;-38
2022/04/22 07:27:42;;;;;;;14.23;11.75;;;13.80;90.90;;;;;;5025969;28;20200;-39
2022/04/22 07:30:14;;;;;;;16.80;12.55;;;13.80;90.70;;;;;;5026937;28;20263;-39
2022/04/22 07:32:45;;;;;;;17.10;12.13;;;13.80;90.80;;;;;;5027799;28;20274;-38
2022/04/22 07:35:19;;;;;;;17.90;12.27;;;13.90;90.90;;;;;;5029647;28;20239;-38
2022/04/22 07:37:50;;;;;;;20.77;13.15;;;13.90;90.90;;;;;;5027078;28;20262;-38
2022/04/22 07:40:22;;;;;;;20.10;13.57;;;13.90;91.00;;;;;;5044977;28;20215;-38
2022/04/22 07:48:43;;;;;;;19.65;14.00;;;14.10;91.40;;;;;;5044229;28;20566;-39
2022/04/22 07:51:15;;;;;;;19.10;13.50;;;14.10;91.10;;;;;;5030419;28;20200;-39
2022/04/22 07:53:42;;;;;;;22.45;14.88;;;14.20;91.00;;;;;;5026645;28;20243;-38
2022/04/22 07:56:13;;;;;;;19.23;13.38;;;14.30;91.30;;;;;;5028475;28;20251;-39
2022/04/22 07:58:42;;;;;;;18.67;12.48;;;14.30;91.00;;;;;;5033353;28;20277;-39
2022/04/22 08:01:10;;;;;;;17.40;13.00;;;14.40;90.90;;;;;;5024314;28;20243;-38
2022/04/22 08:03:37;;;;;;;16.88;11.77;;;14.40;91.30;;;;;;5040604;28;20212;-39
2022/04/22 08:06:06;;;;;;;21.45;14.20;;;14.50;90.90;;;;;;5029244;28;20208;-43
2022/04/22 08:08:33;;;;;;;18.98;13.52;;;14.60;91.50;;;;;;5039860;28;20265;-38
2022/04/22 08:11:00;;;;;;;18.75;12.60;;;14.60;91.20;;;;;;5033227;28;20307;-38
2022/04/22 08:13:28;;;;;;;16.92;12.93;;;14.60;91.10;;;;;;5042658;28;20240;-38
2022/04/22 08:16:00;;;;;;;15.32;11.27;;;14.70;91.10;;;;;;5043058;28;20322;-37
2022/04/22 08:18:30;;;;;;;22.52;14.75;;;14.80;90.90;;;;;;5028353;28;20230;-36
2022/04/22 08:20:58;;;;;;;17.63;13.38;;;14.80;91.50;;;;;;5026049;28;20241;-36
2022/04/22 08:23:27;;;;;;;19.40;14.02;;;14.80;91.60;;;;;;5029786;28;20299;-36
2022/04/22 08:25:55;;;;;;;18.73;13.50;;;14.80;92.10;;;;;;5041699;28;20722;-35
2022/04/22 08:28:23;;;;;;;20.23;13.63;;;14.90;91.40;;;;;;5043991;28;20220;-43
2022/04/22 08:30:50;;;;;;;17.52;13.60;;;15.00;91.40;;;;;;5038125;28;20291;-43
2022/04/22 08:33:20;;;;;;;17.83;13.05;;;15.10;91.60;;;;;;5026489;28;20686;-43
2022/04/22 08:35:51;;;;;;;15.88;12.20;;;15.20;91.40;;;;;;5038087;28;20270;-43
2022/04/22 08:38:21;;;;;;;18.27;12.77;;;15.30;91.20;;;;;;5045523;28;20192;-43
2022/04/22 08:40:48;;;;;;;17.20;12.57;;;15.50;91.40;;;;;;5030704;28;20696;-43
2022/04/22 08:43:21;;;;;;;17.98;13.30;;;15.60;91.40;;;;;;5027476;28;20602;-43
2022/04/22 08:45:52;;;;;;;18.10;12.73;;;15.70;91.40;;;;;;5041986;28;20232;-42
2022/04/22 08:51:09;;;;;;;16.75;12.13;;;15.90;91.40;;;;;;5035991;28;20209;-35
2022/04/22 08:53:43;;;;;;;16.73;12.98;;;15.90;91.40;;;;;;5038639;28;20204;-35
2022/04/22 08:56:13;;;;;;;18.92;12.95;;;16.00;91.50;;;;;;5029791;28;20318;-35
2022/04/22 08:58:40;;;;;;;16.65;12.95;;;16.10;91.60;;;;;;5047759;28;20299;-35
2022/04/22 09:01:12;;;;;;;16.83;13.25;;;16.10;91.50;;;;;;5038326;28;20216;-34
2022/04/22 09:03:39;;;;;;;17.00;12.95;;;16.10;91.60;;;;;;5027514;28;20208;-43
2022/04/22 09:06:12;;;;;;;17.15;13.35;;;16.10;91.50;;;;;;5028188;28;20225;-42
2022/04/22 09:08:40;;;;;;;17.25;13.27;;;16.00;91.50;;;;;;5029181;28;20294;-43
2022/04/22 09:11:12;;;;;;;16.00;11.90;;;16.00;91.50;;;;;;5029040;28;20247;-42
2022/04/22 09:13:41;;;;;;;15.48;11.43;;;16.00;91.30;;;;;;5029221;28;20205;-43
2022/04/22 09:16:21;;;;;;;17.25;12.00;;;16.00;91.20;;;;;;5029438;28;20233;-42
2022/04/22 09:18:59;;;;;;;15.43;10.50;;;16.00;91.30;;;;;;5027683;28;20213;-42
2022/04/22 09:21:27;;;;;;;14.10;10.75;;;16.10;91.50;;;;;;5028966;28;20200;-42
2022/04/22 09:23:54;;;;;;;14.35;10.85;;;16.10;91.20;;;;;;5030933;28;20205;-43
2022/04/22 09:26:30;;;;;;;13.85;10.73;;;16.20;91.30;;;;;;5036808;28;20216;-42
2022/04/22 09:29:10;;;;;;;14.95;9.18;;;16.20;91.30;;;;;;5048790;28;20196;-42
2022/04/22 09:31:47;;;;;;;12.90;9.82;;;16.40;91.30;;;;;;5035271;28;20236;-43
2022/04/22 09:34:17;;;;;;;16.90;9.70;;;16.40;91.40;;;;;;5031523;28;20208;-43
2022/04/22 09:45:07;;;;;;;9.50;7.78;;;16.80;91.00;;;;;;5042824;28;20218;-42
2022/04/22 09:47:37;;;;;;;8.95;6.80;;;16.80;91.00;;;;;;5058033;28;20573;-42
2022/04/22 09:50:11;;;;;;;10.80;6.70;;;16.90;90.80;;;;;;5026846;28;20749;-43
2022/04/22 09:52:43;;;;;;;11.02;6.88;;;16.90;90.80;;;;;;5028359;28;20224;-43
2022/04/22 09:55:18;;;;;;;9.32;6.90;;;16.90;90.70;;;;;;5033431;28;20240;-42
2022/04/22 09:58:00;;;;;;;9.55;7.82;;;17.00;90.80;;;;;;5044652;28;20199;-43
2022/04/22 10:00:31;;;;;;;9.57;7.78;;;17.00;90.60;;;;;;5039214;28;20481;-43
2022/04/22 10:02:59;;;;;;;9.93;7.03;;;17.00;90.50;;;;;;5041077;28;20211;-43
2022/04/22 10:05:28;;;;;;;9.70;7.30;;;17.00;90.70;;;;;;5028767;28;20635;-43
2022/04/22 10:07:57;;;;;;;9.07;7.15;;;17.10;90.70;;;;;;5036929;28;20216;-43
2022/04/22 10:10:40;;;;;;;10.88;7.22;;;17.20;90.80;;;;;;5032929;28;20203;-43
2022/04/22 10:13:16;;;;;;;9.57;7.55;;;17.20;90.80;;;;;;5040086;28;20215;-43
2022/04/22 10:15:48;;;;;;;10.07;8.38;;;17.30;90.80;;;;;;5046238;28;20562;-43
2022/04/22 10:18:16;;;;;;;9.63;8.15;;;17.40;90.90;;;;;;5047897;28;20603;-43
2022/04/22 10:20:47;;;;;;;8.85;7.95;;;17.40;90.80;;;;;;5046998;28;20295;-43
2022/04/22 10:23:17;;;;;;;8.52;7.63;;;17.40;90.80;;;;;;5028283;28;20204;-44
2022/04/22 10:25:44;;;;;;;8.98;8.07;;;17.40;90.80;;;;;;5026978;28;20201;-44
2022/04/22 10:28:15;;;;;;;11.48;9.07;;;17.40;90.80;;;;;;5027608;28;20292;-43
2022/04/22 10:30:45;;;;;;;11.80;8.68;;;17.50;90.80;;;;;;5027895;28;20216;-42
2022/04/22 10:33:12;;;;;;;10.95;8.77;;;17.50;90.80;;;;;;5030628;28;20387;-43
2022/04/22 10:35:46;;;;;;;8.05;7.25;;;17.50;90.80;;;;;;5042758;28;20266;-35
2022/04/22 10:38:26;;;;;;;10.98;8.73;;;17.50;90.80;;;;;;5027752;28;20510;-35
2022/04/22 10:40:54;;;;;;;10.27;8.65;;;17.60;90.90;;;;;;5044313;28;20208;-35
2022/04/22 10:43:26;;;;;;;10.00;8.20;;;17.50;90.80;;;;;;5035453;28;20712;-35
2022/04/22 10:49:11;;;;;;;12.00;8.75;;;17.50;90.60;;;;;;5029132;28;20193;-35
2022/04/22 10:52:00;;;;;;;10.15;7.75;;;17.40;90.50;;;;;;5033227;28;20208;-35
2022/04/22 10:54:52;;;;;;;12.43;8.68;;;17.40;90.50;;;;;;5026765;28;20231;-35
2022/04/22 10:57:27;;;;;;;10.43;8.38;;;17.40;90.50;;;;;;5026743;28;20366;-35
2022/04/22 11:00:27;;;;;;;10.80;8.48;;;17.40;90.70;;;;;;5022739;28;20197;-35
2022/04/22 11:03:11;;;;;;;11.77;8.98;;;17.40;90.60;;;;;;5028311;28;20706;-36
2022/04/22 11:06:00;;;;;;;13.48;9.55;;;17.40;90.60;;;;;;5045981;28;20224;-35
2022/04/22 11:08:34;;;;;;;14.38;10.15;;;17.30;90.60;;;;;;5040960;28;20275;-35
2022/04/22 11:11:10;;;;;;;12.25;10.05;;;17.30;90.60;;;;;;5027970;28;20193;-44
2022/04/22 11:13:40;;;;;;;12.38;10.45;;;17.30;90.50;;;;;;5032307;28;20683;-44
2022/04/22 11:16:32;;;;;;;13.48;9.40;;;17.30;90.50;;;;;;5024418;28;20700;-44
2022/04/22 11:19:18;;;;;;;11.90;9.52;;;17.30;90.50;;;;;;5026332;28;20199;-44
2022/04/22 11:21:52;;;;;;;13.35;9.38;;;17.30;90.60;;;;;;5026605;28;20224;-44
2022/04/22 11:24:36;;;;;;;10.43;7.57;;;17.20;90.50;;;;;;5014800;28;20331;-44
2022/04/22 11:27:15;;;;;;;10.57;8.13;;;17.30;90.60;;;;;;5034285;28;20213;-44
2022/04/22 11:29:44;;;;;;;10.00;7.75;;;17.30;90.60;;;;;;5027389;28;20315;-45
2022/04/22 11:32:21;;;;;;;8.35;6.85;;;17.40;90.60;;;;;;5032608;28;20198;-44
2022/04/22 11:35:03;;;;;;;13.82;8.30;;;17.40;90.60;;;;;;5049552;28;20703;-44
2022/04/22 11:37:37;;;;;;;9.98;7.88;;;17.50;90.70;;;;;;5046923;28;20616;-44
2022/04/22 11:40:18;;;;;;;10.75;7.82;;;17.50;90.50;;;;;;5044212;28;20212;-45
2022/04/22 11:42:46;;;;;;;12.43;8.60;;;17.60;90.60;;;;;;5026129;28;20211;-44
2022/04/22 11:45:16;;;;;;;8.63;7.72;;;17.60;90.50;;;;;;5049918;28;20677;-44
2022/04/22 11:47:45;;;;;;;11.25;8.40;;;17.60;90.50;;;;;;5032676;28;20834;-44
2022/04/22 11:50:22;;;;;;;9.27;8.00;;;17.60;90.50;;;;;;5029276;28;20209;-45
2022/04/22 11:52:53;;;;;;;9.55;7.45;;;17.70;90.50;;;;;;5030393;28;20400;-35
2022/04/22 11:55:23;;;;;;;11.10;8.82;;;17.70;90.50;;;;;;5024331;28;20347;-43
2022/04/22 11:57:55;;;;;;;11.60;9.10;;;17.80;90.60;;;;;;5026237;28;20201;-43
2022/04/22 12:05:57;;;;;;;9.50;8.20;;;18.00;90.40;;;;;;5025507;28;20235;-42
2022/04/22 12:08:27;;;;;;;9.25;7.57;;;18.00;90.30;;;;;;5024907;28;20230;-42
2022/04/22 12:10:56;;;;;;;9.05;7.65;;;18.10;90.40;;;;;;5030522;28;20228;-39
2022/04/22 12:13:26;;;;;;;9.65;7.57;;;18.20;90.10;;;;;;5030105;28;20208;-39
2022/04/22 12:15:54;;;;;;;15.38;8.60;;;18.20;90.20;;;;;;5031769;28;20295;-39
2022/04/22 12:18:35;;;;;;;11.98;7.70;;;18.20;89.30;;;;;;5017404;28;20230;-39
2022/04/22 12:21:07;;;;;;;9.60;7.75;;;18.20;89.80;;;;;;5029737;28;20320;-39
2022/04/22 12:23:39;;;;;;;9.68;6.90;;;18.20;90.10;;;;;;5036152;28;20196;-38
2022/04/22 12:26:18;;;;;;;10.68;7.97;;;18.30;90.10;;;;;;5029299;28;20690;-41
2022/04/22 12:29:07;;;;;;;8.80;7.68;;;18.30;90.00;;;;;;5049066;28;20871;-44
2022/04/22 12:31:40;;;;;;;8.85;6.95;;;18.40;90.20;;;;;;5044542;28;20196;-42
2022/04/22 12:34:10;;;;;;;9.77;8.50;;;18.50;90.30;;;;;;5043434;28;20716;-40
2022/04/22 12:36:53;;;;;;;10.43;8.93;;;18.50;89.70;;;;;;5041788;28;20608;-41
2022/04/22 12:39:35;;;;;;;8.65;7.15;;;18.40;89.00;;;;;;5065016;28;20386;-40
2022/04/22 12:42:07;;;;;;;9.90;7.20;;;18.30;89.50;;;;;;5050370;28;20270;-42
2022/04/22 12:44:35;;;;;;;8.63;7.68;;;18.30;89.40;;;;;;5044527;28;20213;-42
2022/04/22 12:53:00;;;;;;;10.23;8.10;;;18.50;90.00;;;;;;5044741;28;20446;-41
2022/04/22 12:55:28;;;;;;;9.18;7.65;;;18.40;89.80;;;;;;5037814;28;20291;-38
2022/04/22 12:57:59;;;;;;;9.98;7.45;;;18.40;89.60;;;;;;5039582;28;20204;-37
2022/04/22 13:00:26;;;;;;;9.45;7.32;;;18.40;89.10;;;;;;5032464;28;20193;-38
2022/04/22 13:03:12;;;;;;;9.48;8.45;;;18.40;89.40;;;;;;5030042;28;20217;-37
2022/04/22 13:05:39;;;;;;;9.18;7.38;;;18.40;89.40;;;;;;5032942;28;20196;-38
2022/04/22 13:08:10;;;;;;;9.65;7.88;;;18.40;89.50;;;;;;5042818;28;20208;-37
2022/04/22 13:10:41;;;;;;;10.63;8.20;;;18.50;89.80;;;;;;5040971;28;20247;-37
2022/04/22 13:13:12;;;;;;;9.32;8.38;;;18.50;89.90;;;;;;5035212;28;20207;-37
2022/04/22 13:15:39;;;;;;;9.48;8.38;;;18.50;89.10;;;;;;5035409;28;20694;-37
2022/04/22 13:18:06;;;;;;;8.63;7.57;;;18.40;88.90;;;;;;5043302;28;20212;-37
2022/04/22 13:20:36;;;;;;;10.30;7.60;;;18.40;88.90;;;;;;5029030;28;20201;-40
2022/04/22 13:23:08;;;;;;;9.93;7.05;;;18.50;89.20;;;;;;5042982;28;20201;-40
2022/04/22 13:25:38;;;;;;;8.80;7.90;;;18.50;89.50;;;;;;5017924;28;20200;-42
2022/04/22 13:28:05;;;;;;;11.18;7.30;;;18.60;89.40;;;;;;5035157;28;20247;-42
2022/04/22 13:30:40;;;;;;;10.13;8.23;;;18.60;89.40;;;;;;5032001;28;20219;-38
2022/04/22 13:33:10;;;;;;;8.55;7.70;;;18.60;89.10;;;;;;5031329;28;20286;-38
2022/04/22 13:35:39;;;;;;;10.00;7.20;;;18.70;89.50;;;;;;5025582;28;20209;-38
2022/04/22 13:38:09;;;;;;;7.55;6.78;;;18.70;89.40;;;;;;5031124;28;20236;-42
2022/04/22 13:40:37;;;;;;;8.27;7.40;;;18.70;89.40;;;;;;5029467;28;20300;-41
2022/04/22 13:43:09;;;;;;;7.35;6.65;;;18.70;88.80;;;;;;5037699;28;20313;-41
2022/04/22 13:54:00;;;;;;;7.15;5.75;;;18.90;88.80;;;;;;5035780;28;20291;-40
2022/04/22 13:56:30;;;;;;;6.82;5.95;;;19.00;89.50;;;;;;5038891;28;20235;-42
2022/04/22 13:59:00;;;;;;;5.65;5.07;;;19.10;89.60;;;;;;5037201;28;20285;-41
2022/04/22 14:01:27;;;;;;;7.32;6.60;;;19.20;89.90;;;;;;5048521;28;20188;-42
2022/04/22 14:03:54;;;;;;;6.80;6.15;;;19.30;89.00;;;;;;5037776;28;20225;-42
2022/04/22 14:06:27;;;;;;;5.90;5.30;;;19.30;89.00;;;;;;5029571;28;20287;-38
2022/04/22 14:08:59;;;;;;;6.47;5.35;;;19.40;89.60;;;;;;5042934;28;20212;-38